Time;durP1;ratioP1;P1;durP2;ratioP2;P2;SDS_P1;SDS_P2;PMS_P1;PMS_P2;Temp;Humidity;BMP_temperature;BMP_pressure;BME280_temperature;BME280_humidity;BME280_pressure;Samples;Min_cycle;Max_cycle;Signal;HPM_P1;HPM_P2
2022/04/21 00:00:41;;;;;;;2.40;2.20;;;20.20;46.10;;;;;;5016607;28;20190;-69
2022/04/21 00:03:08;;;;;;;2.30;2.10;;;20.30;46.20;;;;;;5033248;28;20172;-69
2022/04/21 00:05:35;;;;;;;1.83;1.73;;;20.30;46.10;;;;;;5016775;28;20199;-69
2022/04/21 00:08:01;;;;;;;2.65;2.10;;;20.20;46.10;;;;;;5034233;28;20172;-70
2022/04/21 00:10:29;;;;;;;2.58;2.30;;;20.20;46.20;;;;;;5034096;28;20241;-69
2022/04/21 00:12:55;;;;;;;1.95;1.85;;;20.20;46.20;;;;;;5033746;28;20198;-69
2022/04/21 00:15:23;;;;;;;2.25;2.08;;;20.20;46.20;;;;;;5015226;28;20729;-69
2022/04/21 00:17:49;;;;;;;2.38;2.17;;;20.20;46.20;;;;;;5032874;28;20541;-69
2022/04/21 00:20:15;;;;;;;2.28;2.00;;;20.20;46.20;;;;;;5016453;28;20183;-69
2022/04/21 00:25:28;;;;;;;2.40;2.15;;;20.30;46.30;;;;;;5032560;28;20221;-69
2022/04/21 00:27:55;;;;;;;2.35;2.15;;;20.30;46.40;;;;;;5016480;28;20183;-69
2022/04/21 00:30:21;;;;;;;2.38;2.17;;;20.30;46.30;;;;;;5016080;28;20219;-69
2022/04/21 00:32:47;;;;;;;2.55;2.35;;;20.30;46.30;;;;;;5032204;28;20207;-69
2022/04/21 00:35:15;;;;;;;2.55;2.35;;;20.30;46.20;;;;;;5015758;28;20238;-69
2022/04/21 00:37:56;;;;;;;2.63;2.42;;;20.20;46.20;;;;;;5032328;28;20180;-69
2022/04/21 00:40:27;;;;;;;2.30;2.10;;;20.30;46.20;;;;;;5031986;28;20188;-69
2022/04/21 00:42:54;;;;;;;2.30;2.10;;;20.20;46.20;;;;;;5015800;28;20219;-69
2022/04/21 00:45:20;;;;;;;2.40;2.20;;;20.20;46.10;;;;;;5015412;28;20199;-68
2022/04/21 00:47:48;;;;;;;2.08;1.98;;;20.20;46.20;;;;;;5032376;28;20183;-69
2022/04/21 00:50:36;;;;;;;2.20;2.05;;;20.20;46.20;;;;;;5015691;28;20194;-69
2022/04/21 00:53:03;;;;;;;2.35;2.17;;;20.20;46.30;;;;;;5015306;28;20199;-68
2022/04/21 00:55:31;;;;;;;2.38;2.17;;;20.20;46.30;;;;;;5015702;28;20234;-68
2022/04/21 00:58:01;;;;;;;2.95;2.10;;;20.20;46.30;;;;;;5015544;28;20245;-68
2022/04/21 01:00:26;;;;;;;2.63;2.42;;;20.20;46.30;;;;;;5015576;28;20190;-68
2022/04/21 01:02:52;;;;;;;2.53;2.33;;;20.20;46.30;;;;;;5015106;28;20191;-69
2022/04/21 01:05:31;;;;;;;2.42;2.22;;;20.20;46.20;;;;;;5032928;28;20206;-68
2022/04/21 01:08:03;;;;;;;2.53;2.33;;;20.20;46.90;;;;;;5031832;28;20190;-68
2022/04/21 01:10:33;;;;;;;2.53;2.30;;;20.20;46.10;;;;;;5015170;28;20597;-69
2022/04/21 01:12:59;;;;;;;3.90;2.42;;;20.20;46.20;;;;;;5031450;28;20284;-69
2022/04/21 01:15:26;;;;;;;4.07;2.50;;;20.20;46.20;;;;;;5032836;28;20249;-69
2022/04/21 01:17:54;;;;;;;2.20;2.00;;;20.20;46.20;;;;;;5031701;28;20183;-69
2022/04/21 01:20:21;;;;;;;2.35;2.15;;;20.20;46.20;;;;;;5031619;28;20187;-69
2022/04/21 01:22:48;;;;;;;2.33;2.13;;;20.20;46.20;;;;;;5015004;28;20175;-69
2022/04/21 01:25:14;;;;;;;3.60;2.17;;;20.20;46.20;;;;;;5015043;28;20261;-69
2022/04/21 01:27:41;;;;;;;2.63;2.00;;;20.20;46.30;;;;;;5014814;28;20302;-69
2022/04/21 01:30:10;;;;;;;2.08;1.98;;;20.20;46.30;;;;;;5015167;28;20245;-68
2022/04/21 01:32:36;;;;;;;2.40;2.20;;;20.20;46.90;;;;;;5014895;28;20297;-68
2022/04/21 01:35:05;;;;;;;2.30;2.10;;;20.20;46.30;;;;;;5031237;28;20242;-68
2022/04/21 01:42:59;;;;;;;3.28;2.47;;;20.20;46.20;;;;;;5015006;28;20175;-68
2022/04/21 01:45:25;;;;;;;2.42;2.22;;;20.20;46.30;;;;;;5014553;28;20694;-69
2022/04/21 01:47:51;;;;;;;2.53;2.40;;;20.20;46.20;;;;;;5015007;28;20187;-68
2022/04/21 01:50:16;;;;;;;2.60;2.40;;;20.20;46.10;;;;;;4998677;28;20187;-68
2022/04/21 01:52:42;;;;;;;2.15;2.00;;;20.20;46.10;;;;;;5031351;28;20195;-69
2022/04/21 01:55:08;;;;;;;2.17;2.08;;;20.20;46.10;;;;;;5014884;28;20198;-68
2022/04/21 01:57:34;;;;;;;2.47;2.28;;;20.20;46.20;;;;;;5014683;28;20183;-68
2022/04/21 02:00:01;;;;;;;2.20;2.00;;;20.20;46.20;;;;;;5014598;28;20712;-69
2022/04/21 02:02:30;;;;;;;2.13;1.90;;;20.20;46.20;;;;;;5015246;28;20659;-68
2022/04/21 02:04:57;;;;;;;2.10;2.00;;;20.20;46.30;;;;;;5014446;28;20234;-69
2022/04/21 02:07:24;;;;;;;2.53;2.20;;;20.20;46.20;;;;;;4998445;28;20187;-68
2022/04/21 02:09:50;;;;;;;2.40;2.20;;;20.20;46.30;;;;;;5014513;28;20659;-69
2022/04/21 02:12:16;;;;;;;1.90;1.80;;;20.20;46.30;;;;;;5014757;28;20241;-69
2022/04/21 02:14:42;;;;;;;2.00;1.90;;;20.20;46.30;;;;;;5014232;28;20233;-68
2022/04/21 02:17:08;;;;;;;1.90;1.80;;;20.20;46.40;;;;;;5031355;28;20266;-69
2022/04/21 02:19:34;;;;;;;2.42;2.22;;;20.20;46.30;;;;;;5014488;28;20180;-69
2022/04/21 02:22:00;;;;;;;3.22;2.63;;;20.20;46.30;;;;;;5014394;28;20275;-68
2022/04/21 02:24:25;;;;;;;2.13;1.83;;;20.20;46.30;;;;;;5030502;28;20242;-69
2022/04/21 02:26:51;;;;;;;2.70;2.50;;;20.20;46.30;;;;;;5030951;28;20191;-68
2022/04/21 02:29:17;;;;;;;1.92;1.83;;;20.20;46.30;;;;;;5014341;28;20191;-69
2022/04/21 02:31:42;;;;;;;2.55;2.35;;;20.20;46.30;;;;;;5007568;28;20198;-69
2022/04/21 02:34:08;;;;;;;2.40;2.20;;;20.20;46.20;;;;;;5013877;28;20215;-68
2022/04/21 02:36:34;;;;;;;2.55;2.35;;;20.20;46.20;;;;;;5014258;28;20191;-69
2022/04/21 02:39:00;;;;;;;2.30;2.00;;;20.20;46.20;;;;;;5016139;28;20183;-69
2022/04/21 02:41:26;;;;;;;2.22;2.13;;;20.20;46.20;;;;;;5018030;28;20178;-69
2022/04/21 02:43:52;;;;;;;2.40;2.20;;;20.20;46.10;;;;;;5017902;28;20270;-68
2022/04/21 02:46:27;;;;;;;2.50;2.30;;;20.20;46.20;;;;;;5035752;28;20183;-68
2022/04/21 02:48:56;;;;;;;2.50;2.30;;;20.20;46.10;;;;;;5035530;28;20171;-69
2022/04/21 02:51:22;;;;;;;2.20;2.00;;;20.10;46.10;;;;;;5018077;28;20199;-69
2022/04/21 02:59:16;;;;;;;2.28;2.08;;;20.20;46.30;;;;;;5035556;28;20627;-69
2022/04/21 03:01:42;;;;;;;1.80;1.70;;;20.20;46.30;;;;;;5017677;28;20168;-69
2022/04/21 03:04:09;;;;;;;1.92;1.83;;;20.20;46.30;;;;;;5017570;28;20261;-69
2022/04/21 03:06:34;;;;;;;2.30;2.10;;;20.20;46.30;;;;;;5017595;28;20191;-69
2022/04/21 03:09:00;;;;;;;2.50;2.30;;;20.10;46.20;;;;;;5017880;28;20194;-68
2022/04/21 03:11:26;;;;;;;2.53;2.33;;;20.10;46.20;;;;;;5017701;28;20191;-68
2022/04/21 03:13:51;;;;;;;2.70;2.50;;;20.20;46.20;;;;;;5017419;28;20207;-69
2022/04/21 03:16:30;;;;;;;3.10;2.80;;;20.20;46.20;;;;;;5122870;27;20616;-68
2022/04/21 03:18:56;;;;;;;2.50;2.30;;;20.10;46.20;;;;;;5085786;28;20220;-68
2022/04/21 03:24:21;;;;;;;2.10;2.00;;;20.10;46.00;;;;;;5070773;28;20212;-68
2022/04/21 03:26:52;;;;;;;1.88;1.77;;;20.10;46.10;;;;;;5068661;28;20179;-68
2022/04/21 03:29:19;;;;;;;2.15;1.90;;;20.20;46.30;;;;;;5085302;28;20185;-68
2022/04/21 03:31:45;;;;;;;2.40;1.88;;;20.10;46.20;;;;;;5069513;28;20221;-68
2022/04/21 03:34:19;;;;;;;1.88;1.77;;;20.10;46.20;;;;;;5085063;28;20229;-67
2022/04/21 03:36:47;;;;;;;2.40;2.20;;;20.10;46.20;;;;;;5068473;28;20233;-68
2022/04/21 03:39:16;;;;;;;2.05;1.95;;;20.10;46.20;;;;;;5084919;28;20201;-68
2022/04/21 03:41:42;;;;;;;2.05;1.95;;;20.10;46.20;;;;;;5068107;28;20205;-68
2022/04/21 03:44:09;;;;;;;2.92;2.60;;;20.10;46.20;;;;;;5084695;28;20201;-68
2022/04/21 03:46:35;;;;;;;2.70;2.50;;;20.20;46.30;;;;;;5067990;28;20182;-68
2022/04/21 03:49:01;;;;;;;2.25;2.15;;;20.10;46.20;;;;;;5068085;28;20178;-68
2022/04/21 03:51:27;;;;;;;2.45;2.25;;;20.10;46.00;;;;;;5068108;28;20189;-68
2022/04/21 03:53:57;;;;;;;2.55;2.35;;;20.10;46.10;;;;;;5084513;28;20182;-68
2022/04/21 03:56:23;;;;;;;2.60;2.40;;;20.10;46.20;;;;;;5084744;28;20201;-68
2022/04/21 03:58:49;;;;;;;2.72;2.50;;;20.10;46.10;;;;;;5084744;28;20657;-69
2022/04/21 04:01:15;;;;;;;2.58;2.40;;;20.10;46.20;;;;;;5084726;28;20672;-69
2022/04/21 04:03:42;;;;;;;2.13;1.90;;;20.10;46.10;;;;;;5067855;28;20179;-69
2022/04/21 04:11:50;;;;;;;2.13;2.03;;;20.10;46.30;;;;;;5084648;28;20186;-68
2022/04/21 04:14:16;;;;;;;2.20;2.10;;;20.10;46.30;;;;;;5084112;28;20206;-68
2022/04/21 04:16:42;;;;;;;2.55;2.35;;;20.10;46.30;;;;;;5068602;28;20166;-69
2022/04/21 04:19:08;;;;;;;2.55;2.35;;;20.10;46.30;;;;;;5084329;28;20171;-69
2022/04/21 04:21:35;;;;;;;2.90;2.70;;;20.10;46.30;;;;;;5090171;22;20189;-68
2022/04/21 04:24:01;;;;;;;2.80;2.60;;;20.10;46.40;;;;;;5029438;28;20712;-70
2022/04/21 04:26:27;;;;;;;3.00;2.80;;;20.10;46.30;;;;;;5025096;28;20199;-70
2022/04/21 04:28:53;;;;;;;3.03;2.83;;;20.10;46.30;;;;;;5017296;28;20191;-70
2022/04/21 04:31:19;;;;;;;2.70;2.50;;;20.10;46.20;;;;;;5033931;28;20187;-69
2022/04/21 04:33:45;;;;;;;3.67;3.00;;;20.10;46.20;;;;;;5034904;28;20206;-69
2022/04/21 04:36:13;;;;;;;3.13;2.83;;;20.10;46.20;;;;;;5050376;28;20219;-70
2022/04/21 04:38:40;;;;;;;2.90;2.70;;;20.10;46.30;;;;;;5050258;28;20225;-70
2022/04/21 04:43:50;;;;;;;2.20;2.10;;;20.10;46.20;;;;;;5050042;28;20203;-69
2022/04/21 04:46:35;;;;;;;2.85;2.30;;;20.10;46.30;;;;;;5034930;28;20182;-70
2022/04/21 04:49:09;;;;;;;2.60;2.40;;;20.10;46.40;;;;;;5050412;28;20174;-70
2022/04/21 04:51:41;;;;;;;2.70;2.50;;;20.10;46.40;;;;;;5050432;28;20627;-70
2022/04/21 04:54:09;;;;;;;3.10;2.72;;;20.10;46.40;;;;;;5033259;28;20262;-70
2022/04/21 04:56:37;;;;;;;2.92;2.60;;;20.10;46.40;;;;;;5017104;28;20266;-69
2022/04/21 04:59:04;;;;;;;3.40;3.20;;;20.10;46.40;;;;;;5033526;28;20175;-70
2022/04/21 05:01:32;;;;;;;3.15;2.85;;;20.10;46.30;;;;;;5017341;28;20245;-70
2022/04/21 05:04:05;;;;;;;3.10;2.90;;;20.10;46.40;;;;;;5050138;28;20248;-70
2022/04/21 05:06:39;;;;;;;2.95;2.75;;;20.10;46.30;;;;;;5032950;28;20187;-70
2022/04/21 05:09:09;;;;;;;2.58;2.38;;;20.10;46.30;;;;;;5033535;28;20179;-69
2022/04/21 05:11:36;;;;;;;2.50;2.40;;;20.10;46.30;;;;;;5032844;28;20237;-69
2022/04/21 05:14:03;;;;;;;2.42;2.25;;;20.10;46.40;;;;;;5049565;28;20313;-70
2022/04/21 05:16:29;;;;;;;2.60;2.40;;;20.10;46.40;;;;;;5033224;28;20215;-70
2022/04/21 05:18:57;;;;;;;2.90;2.70;;;20.10;46.40;;;;;;5033027;28;20184;-69
2022/04/21 05:21:24;;;;;;;2.67;2.47;;;20.10;46.40;;;;;;5016653;28;20187;-69
2022/04/21 05:23:59;;;;;;;2.28;2.17;;;20.10;46.40;;;;;;5032558;28;20336;-70
2022/04/21 05:26:27;;;;;;;2.70;2.50;;;20.10;46.40;;;;;;5049376;28;20534;-69
2022/04/21 05:28:54;;;;;;;2.38;2.17;;;20.10;46.40;;;;;;5032823;28;20187;-69
2022/04/21 05:31:21;;;;;;;3.03;2.83;;;20.10;46.40;;;;;;5016172;28;20333;-70
2022/04/21 05:33:48;;;;;;;2.97;2.70;;;20.10;46.40;;;;;;5016261;28;20693;-69
2022/04/21 05:36:15;;;;;;;4.38;2.45;;;20.10;46.40;;;;;;5049150;28;20694;-70
2022/04/21 05:38:41;;;;;;;3.05;2.75;;;20.10;46.40;;;;;;5032003;28;20183;-69
2022/04/21 05:41:07;;;;;;;2.85;2.65;;;20.10;46.40;;;;;;5015897;28;20183;-69
2022/04/21 05:43:45;;;;;;;2.85;2.65;;;20.10;46.40;;;;;;5032361;28;20581;-69
2022/04/21 05:46:14;;;;;;;2.95;2.75;;;20.00;46.30;;;;;;5032515;28;20207;-69
2022/04/21 05:48:42;;;;;;;2.80;2.60;;;20.10;46.30;;;;;;5033766;28;20235;-70
2022/04/21 05:51:10;;;;;;;2.70;2.50;;;20.00;46.20;;;;;;5049000;28;20179;-69
2022/04/21 05:53:48;;;;;;;2.53;2.20;;;20.00;46.30;;;;;;5032331;28;20248;-69
2022/04/21 05:56:15;;;;;;;2.20;2.10;;;20.00;46.20;;;;;;5032097;28;20234;-70
2022/04/21 05:58:41;;;;;;;2.75;2.55;;;20.00;46.40;;;;;;5015881;28;20183;-69
2022/04/21 06:01:09;;;;;;;2.40;2.22;;;20.00;46.40;;;;;;5048859;28;20183;-69
2022/04/21 06:03:41;;;;;;;2.47;2.35;;;20.00;46.40;;;;;;5048548;28;20207;-69
2022/04/21 06:06:09;;;;;;;2.55;2.38;;;20.10;46.50;;;;;;5032331;28;20348;-69
2022/04/21 06:08:36;;;;;;;2.40;2.30;;;20.10;46.60;;;;;;5015944;28;20183;-70
2022/04/21 06:11:03;;;;;;;2.78;2.58;;;20.10;46.50;;;;;;5032119;28;20181;-69
2022/04/21 06:13:30;;;;;;;2.63;2.42;;;20.10;46.50;;;;;;5048652;28;20199;-69
2022/04/21 06:15:58;;;;;;;3.10;2.90;;;20.00;46.40;;;;;;5032099;28;20222;-70
2022/04/21 06:18:25;;;;;;;3.00;2.80;;;20.10;46.40;;;;;;5044491;28;20271;-69
2022/04/21 06:20:54;;;;;;;3.30;3.00;;;20.10;46.40;;;;;;5028715;28;20207;-69
2022/04/21 06:23:21;;;;;;;3.30;3.10;;;20.00;46.30;;;;;;5028546;28;20223;-69
2022/04/21 06:25:47;;;;;;;3.30;3.10;;;20.00;46.30;;;;;;5028543;28;20278;-69
2022/04/21 06:28:13;;;;;;;3.63;3.33;;;20.00;46.40;;;;;;5028698;28;20286;-69
2022/04/21 06:30:40;;;;;;;3.65;3.35;;;20.00;46.40;;;;;;4995612;28;20187;-70
2022/04/21 06:33:06;;;;;;;3.40;3.10;;;20.00;46.30;;;;;;5011970;28;20766;-70
2022/04/21 06:35:32;;;;;;;2.95;2.60;;;20.10;46.40;;;;;;5028498;28;20299;-70
2022/04/21 06:37:58;;;;;;;2.65;2.45;;;20.00;46.40;;;;;;5013016;28;20192;-69
2022/04/21 06:40:24;;;;;;;3.00;2.70;;;20.00;46.40;;;;;;5028202;28;20184;-69
2022/04/21 06:42:50;;;;;;;2.78;2.58;;;20.00;46.40;;;;;;5011811;28;20212;-69
2022/04/21 06:48:04;;;;;;;2.88;2.35;;;20.00;46.50;;;;;;5012917;28;20242;-69
2022/04/21 06:50:37;;;;;;;2.80;2.60;;;20.00;46.50;;;;;;5011300;28;20290;-69
2022/04/21 06:53:09;;;;;;;2.78;2.58;;;20.00;46.50;;;;;;5011264;28;20220;-69
2022/04/21 06:55:35;;;;;;;2.90;2.70;;;20.10;46.60;;;;;;5028210;28;20223;-70
2022/04/21 06:58:02;;;;;;;2.53;2.33;;;20.10;46.60;;;;;;5011420;28;20707;-70
2022/04/21 07:00:28;;;;;;;3.50;3.20;;;20.00;46.50;;;;;;5011763;28;20188;-70
2022/04/21 07:02:57;;;;;;;3.10;2.90;;;20.00;46.50;;;;;;5012877;28;20201;-69
2022/04/21 07:05:25;;;;;;;3.25;3.05;;;20.00;46.50;;;;;;5028128;28;20192;-69
2022/04/21 07:07:52;;;;;;;3.50;3.20;;;20.00;46.40;;;;;;5011287;28;20234;-70
2022/04/21 07:10:21;;;;;;;3.03;2.83;;;20.10;46.50;;;;;;5011382;28;20271;-70
2022/04/21 07:12:47;;;;;;;3.03;2.83;;;20.00;46.50;;;;;;5027725;28;20214;-70
2022/04/21 07:15:15;;;;;;;2.90;2.70;;;20.00;46.40;;;;;;5023628;28;20295;-69
2022/04/21 07:17:41;;;;;;;2.90;2.70;;;20.10;46.60;;;;;;5027966;28;20185;-70
2022/04/21 07:20:11;;;;;;;2.35;2.15;;;20.10;46.60;;;;;;5011603;28;20184;-69
2022/04/21 07:22:37;;;;;;;2.70;2.50;;;20.10;46.60;;;;;;5027701;28;20208;-69
2022/04/21 07:25:07;;;;;;;2.30;2.10;;;20.00;46.50;;;;;;4994782;28;20215;-69
2022/04/21 07:27:34;;;;;;;2.60;2.40;;;20.10;46.60;;;;;;5027850;28;20192;-69
2022/04/21 07:30:01;;;;;;;2.58;2.38;;;20.10;46.60;;;;;;5011585;28;20250;-69
2022/04/21 07:32:26;;;;;;;2.50;2.30;;;20.00;46.50;;;;;;5011225;28;20243;-69
2022/04/21 07:34:52;;;;;;;2.60;2.40;;;20.00;46.50;;;;;;5012229;28;20251;-69
2022/04/21 07:37:18;;;;;;;2.58;2.38;;;20.10;46.60;;;;;;4994858;28;20184;-69
2022/04/21 07:39:44;;;;;;;2.70;2.50;;;20.10;46.60;;;;;;5027729;28;20184;-70
2022/04/21 07:42:11;;;;;;;2.92;2.63;;;20.10;46.60;;;;;;4999784;28;20238;-69
2022/04/21 07:44:38;;;;;;;3.15;2.90;;;20.10;46.60;;;;;;4994844;28;20192;-70
2022/04/21 07:47:05;;;;;;;2.50;2.40;;;20.10;46.60;;;;;;5011152;28;20298;-69
2022/04/21 07:49:45;;;;;;;3.60;3.30;;;20.00;46.50;;;;;;5011032;28;20713;-69
2022/04/21 07:55:15;;;;;;;2.50;2.30;;;20.10;46.60;;;;;;5010786;28;20235;-69
2022/04/21 07:57:43;;;;;;;3.00;2.28;;;20.00;46.50;;;;;;5012115;28;20580;-70
2022/04/21 08:00:11;;;;;;;2.70;2.50;;;20.10;46.60;;;;;;5012157;28;20181;-69
2022/04/21 08:02:42;;;;;;;3.00;2.80;;;20.20;46.50;;;;;;5013595;28;20401;-69
2022/04/21 08:05:10;;;;;;;2.90;2.70;;;20.20;46.30;;;;;;5014478;28;20192;-70
2022/04/21 08:07:37;;;;;;;2.13;2.03;;;20.30;46.30;;;;;;5014719;28;20184;-69
2022/04/21 08:10:06;;;;;;;2.67;2.47;;;20.30;46.20;;;;;;5014636;28;20587;-69
2022/04/21 08:12:49;;;;;;;2.55;2.35;;;20.40;46.30;;;;;;5014585;28;20215;-70
2022/04/21 08:15:32;;;;;;;2.22;2.10;;;20.40;46.20;;;;;;5014246;28;20219;-70
2022/04/21 08:18:04;;;;;;;2.03;1.92;;;20.40;46.20;;;;;;5031057;28;20199;-69
2022/04/21 08:20:33;;;;;;;2.60;2.22;;;20.50;46.20;;;;;;5014522;28;20622;-69
2022/04/21 08:22:59;;;;;;;2.50;2.30;;;20.50;46.20;;;;;;5015377;28;20208;-70
2022/04/21 08:33:38;;;;;;;2.40;2.22;;;20.50;46.10;;;;;;5030486;28;20293;-70
2022/04/21 08:36:05;;;;;;;2.60;2.40;;;20.50;46.00;;;;;;5014231;28;20231;-69
2022/04/21 08:38:32;;;;;;;2.20;2.10;;;20.50;46.00;;;;;;5014196;28;20593;-69
2022/04/21 08:41:03;;;;;;;2.40;2.17;;;20.50;46.00;;;;;;5014083;28;20230;-70
2022/04/21 08:43:29;;;;;;;2.40;2.20;;;20.60;46.10;;;;;;4997336;28;20771;-69
2022/04/21 08:45:56;;;;;;;2.30;2.20;;;20.60;46.10;;;;;;4997411;28;20283;-70
2022/04/21 08:48:25;;;;;;;2.55;2.38;;;20.60;46.10;;;;;;5013936;28;20184;-69
2022/04/21 08:50:52;;;;;;;2.58;2.38;;;20.60;46.10;;;;;;4997346;28;20184;-69
2022/04/21 08:53:21;;;;;;;2.22;2.13;;;20.60;46.10;;;;;;5014815;28;20203;-70
2022/04/21 08:55:51;;;;;;;2.70;2.50;;;20.60;46.10;;;;;;5030075;28;20204;-69
2022/04/21 08:58:18;;;;;;;2.53;2.40;;;20.60;46.10;;;;;;5013679;28;20223;-69
2022/04/21 09:00:44;;;;;;;2.70;2.50;;;20.60;46.00;;;;;;5013627;28;20211;-70
2022/04/21 09:03:12;;;;;;;2.33;2.20;;;20.60;46.00;;;;;;5013361;28;20625;-70
2022/04/21 09:05:39;;;;;;;2.67;1.92;;;20.60;46.00;;;;;;5013396;28;20184;-70
2022/04/21 09:08:16;;;;;;;2.45;2.25;;;20.60;46.10;;;;;;4997198;28;20215;-71
2022/04/21 09:10:43;;;;;;;2.50;2.30;;;20.60;46.10;;;;;;4997110;28;20176;-71
2022/04/21 09:13:08;;;;;;;2.50;2.30;;;20.60;46.10;;;;;;5013349;28;20631;-71
2022/04/21 09:15:37;;;;;;;2.42;2.28;;;20.60;46.20;;;;;;5014343;28;20196;-71
2022/04/21 09:18:16;;;;;;;2.45;2.28;;;20.60;46.10;;;;;;5013179;28;20188;-71
2022/04/21 09:20:42;;;;;;;2.63;2.42;;;20.60;46.10;;;;;;5013537;28;20251;-71
2022/04/21 09:23:12;;;;;;;2.42;2.22;;;20.70;46.00;;;;;;5020220;28;20694;-71
2022/04/21 09:25:50;;;;;;;2.30;2.10;;;20.70;46.10;;;;;;5033797;28;20187;-71
2022/04/21 09:28:32;;;;;;;2.45;2.10;;;20.60;46.00;;;;;;5032784;28;20198;-70
2022/04/21 09:31:00;;;;;;;2.15;2.03;;;20.70;46.20;;;;;;5049641;28;20195;-70
2022/04/21 09:33:35;;;;;;;2.22;2.05;;;20.60;46.20;;;;;;5015991;28;20207;-70
2022/04/21 09:36:05;;;;;;;2.30;2.17;;;20.60;46.20;;;;;;5016014;28;20280;-70
2022/04/21 09:38:31;;;;;;;2.45;2.25;;;20.70;46.20;;;;;;5049400;28;20191;-70
2022/04/21 09:41:08;;;;;;;2.67;2.47;;;20.60;46.10;;;;;;5016342;28;20237;-70
2022/04/21 09:43:37;;;;;;;2.00;1.90;;;20.70;46.10;;;;;;5049250;28;20199;-70
2022/04/21 09:46:13;;;;;;;2.30;2.20;;;20.70;46.20;;;;;;5049037;28;20237;-70
2022/04/21 09:48:40;;;;;;;2.03;1.92;;;20.70;46.20;;;;;;5032446;28;20211;-71
2022/04/21 09:51:19;;;;;;;2.10;2.00;;;20.70;46.10;;;;;;5033510;28;20183;-70
2022/04/21 09:54:03;;;;;;;2.40;2.20;;;20.60;46.00;;;;;;5032086;28;20229;-70
2022/04/21 09:56:38;;;;;;;2.20;2.00;;;20.70;46.20;;;;;;5032451;28;20219;-70
2022/04/21 09:59:09;;;;;;;2.35;2.17;;;20.60;46.10;;;;;;5032407;28;20244;-71
2022/04/21 10:01:38;;;;;;;2.40;2.15;;;20.70;46.20;;;;;;5032063;28;20189;-70
2022/04/21 10:04:08;;;;;;;2.33;2.13;;;20.60;46.00;;;;;;5015440;28;20685;-70
2022/04/21 10:06:42;;;;;;;2.00;1.90;;;20.60;46.10;;;;;;5033341;28;20229;-70
2022/04/21 10:09:10;;;;;;;2.20;2.00;;;20.60;46.10;;;;;;5032007;28;20241;-70
2022/04/21 10:11:38;;;;;;;2.00;1.90;;;20.60;46.20;;;;;;5032170;28;20189;-71
2022/04/21 10:14:05;;;;;;;3.53;2.55;;;20.70;46.20;;;;;;5032974;28;20183;-70
2022/04/21 10:16:32;;;;;;;2.22;2.13;;;20.60;46.10;;;;;;5032072;28;20218;-70
2022/04/21 10:19:00;;;;;;;2.05;1.95;;;20.60;46.20;;;;;;5048818;28;20632;-69
2022/04/21 10:21:36;;;;;;;2.20;2.00;;;20.70;46.20;;;;;;5048602;28;20218;-70
2022/04/21 10:26:54;;;;;;;1.98;1.88;;;20.60;46.10;;;;;;5030303;28;20385;-70
2022/04/21 10:29:27;;;;;;;2.20;2.10;;;20.60;46.20;;;;;;5031240;28;20183;-70
2022/04/21 10:32:03;;;;;;;2.47;2.28;;;20.70;46.30;;;;;;5014601;28;20193;-70
2022/04/21 10:34:38;;;;;;;1.98;1.88;;;20.70;46.30;;;;;;5012547;28;20234;-70
2022/04/21 10:37:21;;;;;;;2.10;1.90;;;20.70;46.30;;;;;;5027999;28;20176;-70
2022/04/21 10:40:14;;;;;;;2.10;2.00;;;20.70;46.20;;;;;;5012436;28;20198;-70
2022/04/21 10:42:52;;;;;;;2.00;1.90;;;20.70;46.20;;;;;;5027669;28;20212;-71
2022/04/21 10:45:26;;;;;;;2.05;1.88;;;20.70;46.20;;;;;;5027427;28;20219;-72
2022/04/21 10:48:07;;;;;;;2.22;1.90;;;20.70;46.50;;;;;;5011123;28;20207;-70
2022/04/21 10:50:35;;;;;;;2.10;2.00;;;20.70;46.20;;;;;;5011193;28;20196;-70
2022/04/21 10:58:34;;;;;;;2.22;2.03;;;20.70;46.20;;;;;;5012398;28;20182;-70
2022/04/21 11:01:14;;;;;;;2.20;2.00;;;20.70;46.10;;;;;;5010913;28;20202;-70
2022/04/21 11:03:41;;;;;;;2.22;2.13;;;20.70;46.20;;;;;;5027431;28;20294;-70
2022/04/21 11:06:09;;;;;;;1.90;1.80;;;20.70;46.20;;;;;;5010893;28;20238;-70
2022/04/21 11:08:36;;;;;;;2.08;1.95;;;20.70;46.10;;;;;;5027501;28;20200;-70
2022/04/21 11:11:04;;;;;;;2.00;1.90;;;20.70;46.20;;;;;;5027231;28;20192;-70
2022/04/21 11:13:53;;;;;;;1.83;1.73;;;20.70;46.20;;;;;;5010786;28;20262;-70
2022/04/21 11:16:42;;;;;;;2.40;2.20;;;20.70;46.10;;;;;;5027182;28;20245;-70
2022/04/21 11:19:30;;;;;;;3.30;2.20;;;20.70;46.20;;;;;;5003303;28;20196;-70
2022/04/21 11:22:01;;;;;;;2.05;1.95;;;20.70;46.10;;;;;;5027181;28;20278;-71
2022/04/21 11:24:47;;;;;;;2.17;2.00;;;20.70;46.80;;;;;;4994105;28;20234;-70
2022/04/21 11:27:15;;;;;;;1.80;1.70;;;20.70;46.20;;;;;;4994388;28;20253;-70
2022/04/21 11:29:41;;;;;;;2.08;1.98;;;20.70;46.10;;;;;;5027231;28;20187;-70
2022/04/21 11:32:08;;;;;;;2.00;1.90;;;20.70;46.20;;;;;;4993640;28;20184;-70
2022/04/21 11:34:34;;;;;;;2.00;1.90;;;20.70;46.30;;;;;;4991915;28;20196;-70
2022/04/21 11:37:02;;;;;;;2.30;2.10;;;20.70;46.30;;;;;;4992809;28;20189;-70
2022/04/21 11:39:29;;;;;;;2.00;1.80;;;20.70;47.30;;;;;;4995417;28;20282;-71
2022/04/21 11:41:56;;;;;;;1.90;1.80;;;20.70;46.50;;;;;;5011047;28;20197;-71
2022/04/21 11:44:26;;;;;;;1.80;1.70;;;20.70;46.40;;;;;;4994845;28;20207;-70
2022/04/21 11:46:53;;;;;;;1.70;1.60;;;20.70;46.40;;;;;;4995096;28;20667;-70
2022/04/21 11:49:19;;;;;;;1.98;1.80;;;20.70;46.40;;;;;;4979026;28;20192;-71
2022/04/21 11:51:52;;;;;;;1.80;1.70;;;20.70;47.10;;;;;;4994451;28;20287;-70
2022/04/21 11:54:18;;;;;;;1.80;1.70;;;20.70;46.50;;;;;;4978287;28;20347;-70
2022/04/21 11:56:51;;;;;;;2.05;1.95;;;20.70;46.50;;;;;;4978597;28;20315;-70
2022/04/21 11:59:17;;;;;;;2.15;2.05;;;20.70;46.40;;;;;;4994574;28;20184;-70
2022/04/21 12:07:16;;;;;;;1.92;1.83;;;20.70;46.30;;;;;;5014243;28;20678;-70
2022/04/21 12:09:46;;;;;;;1.73;1.63;;;20.70;46.40;;;;;;5015222;28;20176;-71
2022/04/21 12:12:13;;;;;;;1.77;1.67;;;20.70;46.90;;;;;;5015145;28;20226;-70
2022/04/21 12:14:43;;;;;;;1.88;1.77;;;20.70;46.50;;;;;;5030042;28;20180;-70
2022/04/21 12:17:11;;;;;;;2.15;2.05;;;20.70;46.30;;;;;;5014051;28;20640;-70
2022/04/21 12:19:43;;;;;;;2.03;1.92;;;20.70;46.40;;;;;;5013848;28;20191;-70
2022/04/21 12:22:11;;;;;;;2.00;1.90;;;20.70;46.70;;;;;;5030242;28;20326;-70
2022/04/21 12:24:54;;;;;;;1.98;1.88;;;20.70;46.40;;;;;;5029975;28;20196;-71
2022/04/21 12:27:37;;;;;;;1.85;1.75;;;20.80;46.40;;;;;;4997541;28;20208;-70
2022/04/21 12:30:07;;;;;;;1.60;1.50;;;20.80;46.20;;;;;;5013566;28;20709;-71
2022/04/21 12:32:35;;;;;;;1.80;1.70;;;20.70;46.30;;;;;;5013714;28;20660;-70
2022/04/21 12:35:08;;;;;;;1.80;1.70;;;20.70;46.20;;;;;;4996991;28;20239;-72
2022/04/21 12:37:37;;;;;;;1.58;1.48;;;20.80;46.40;;;;;;5014743;28;20184;-70
2022/04/21 12:40:10;;;;;;;1.60;1.50;;;20.80;46.30;;;;;;5013576;28;20212;-70
2022/04/21 12:42:40;;;;;;;2.00;1.90;;;20.80;46.20;;;;;;4997509;28;20362;-70
2022/04/21 12:45:07;;;;;;;1.92;1.83;;;20.80;46.30;;;;;;5013427;28;20582;-70
2022/04/21 12:47:48;;;;;;;1.73;1.63;;;20.80;46.30;;;;;;5013072;28;20230;-70
2022/04/21 12:50:25;;;;;;;1.63;1.52;;;20.80;46.30;;;;;;5013179;28;20211;-70
2022/04/21 12:52:53;;;;;;;2.00;1.90;;;20.80;46.20;;;;;;5029859;28;20242;-71
2022/04/21 12:55:22;;;;;;;1.70;1.60;;;20.80;46.30;;;;;;5013037;28;20235;-70
2022/04/21 12:58:28;;;;;;;2.00;1.90;;;20.80;46.30;;;;;;5013303;28;20182;-69
2022/04/21 13:00:54;;;;;;;1.90;1.80;;;20.80;46.30;;;;;;5021628;28;20206;-70
2022/04/21 13:03:20;;;;;;;1.60;1.50;;;20.80;46.40;;;;;;5029422;28;20203;-70
2022/04/21 13:05:51;;;;;;;1.77;1.67;;;20.80;46.40;;;;;;4996490;28;20188;-70
2022/04/21 13:08:19;;;;;;;1.50;1.40;;;20.80;46.40;;;;;;4996901;28;20553;-70
2022/04/21 13:10:44;;;;;;;1.85;1.75;;;20.80;46.50;;;;;;4996496;28;20203;-70
2022/04/21 13:13:10;;;;;;;1.70;1.60;;;20.80;46.50;;;;;;4996392;28;20241;-70
2022/04/21 13:15:37;;;;;;;1.88;1.77;;;20.80;46.40;;;;;;5029259;28;20223;-70
2022/04/21 13:18:03;;;;;;;1.70;1.60;;;20.80;46.40;;;;;;4996727;28;20184;-70
2022/04/21 13:23:13;;;;;;;1.95;1.85;;;20.80;46.60;;;;;;5013817;28;20354;-70
2022/04/21 13:25:39;;;;;;;2.25;2.05;;;20.80;46.40;;;;;;5010672;28;20229;-70
2022/04/21 13:28:05;;;;;;;1.77;1.67;;;20.80;46.40;;;;;;5029069;28;20251;-70
2022/04/21 13:30:31;;;;;;;1.70;1.60;;;20.80;46.40;;;;;;5012142;28;20291;-70
2022/04/21 13:35:41;;;;;;;1.98;1.67;;;20.80;46.40;;;;;;5012226;28;20342;-70
2022/04/21 13:38:08;;;;;;;1.80;1.70;;;20.80;46.40;;;;;;5012457;28;20188;-70
2022/04/21 13:40:34;;;;;;;1.70;1.60;;;20.80;46.50;;;;;;5013604;28;20234;-70
2022/04/21 13:43:00;;;;;;;1.80;1.70;;;20.80;46.40;;;;;;5012170;28;20203;-70
2022/04/21 13:45:26;;;;;;;1.88;1.77;;;20.80;46.50;;;;;;5013427;28;20187;-70
2022/04/21 13:47:52;;;;;;;1.63;1.52;;;20.80;46.50;;;;;;5012385;28;20188;-70
2022/04/21 13:50:18;;;;;;;1.50;1.40;;;20.90;46.50;;;;;;5028852;28;20278;-70
2022/04/21 13:52:44;;;;;;;1.50;1.40;;;20.80;46.50;;;;;;5012057;28;20286;-70
2022/04/21 13:55:11;;;;;;;1.60;1.50;;;20.80;46.60;;;;;;5012149;28;20224;-70